createdAt,value
2018-12-29T00:01:15.151Z,136.37
2018-12-29T00:03:47.380Z,135.20
2018-12-29T00:06:19.260Z,134.20
2018-12-29T00:08:51.224Z,139.80
2018-12-29T00:11:23.351Z,141.53
2018-12-29T00:13:55.620Z,148.83
2018-12-29T00:16:27.624Z,150.50
2018-12-29T00:18:59.567Z,148.17
2018-12-29T00:21:33.163Z,111.63
2018-12-29T00:24:05.049Z,99.03
2018-12-29T00:26:37.275Z,103.13
2018-12-29T00:29:10.860Z,100.33
2018-12-29T00:31:42.852Z,115.90
2018-12-29T00:34:14.734Z,115.80
2018-12-29T00:36:46.608Z,117.40
2018-12-29T00:39:18.738Z,118.70
2018-12-29T00:41:50.591Z,114.43
2018-12-29T00:44:22.512Z,117.37
2018-12-29T00:46:54.412Z,119.30
2018-12-29T00:49:26.260Z,110.03
2018-12-29T00:51:58.163Z,100.37
2018-12-29T00:54:30.001Z,116.60
2018-12-29T00:57:01.887Z,112.87
2018-12-29T00:59:33.803Z,115.07
2018-12-29T01:02:05.726Z,90.90
2018-12-29T01:04:37.625Z,99.07
2018-12-29T01:07:22.968Z,93.33
2018-12-29T01:13:09.551Z,93.93
2018-12-29T01:15:46.006Z,105.57
2018-12-29T01:19:59.849Z,123.10
2018-12-29T01:20:58.685Z,110.40
2018-12-29T01:23:33.417Z,102.87
2018-12-29T01:26:08.562Z,94.77
2018-12-29T01:28:42.491Z,99.73
2018-12-29T01:31:21.807Z,103.97
2018-12-29T01:33:54.192Z,112.27
2018-12-29T01:36:26.042Z,97.70
2018-12-29T01:38:58.914Z,103.87
2018-12-29T01:41:30.869Z,112.83
2018-12-29T01:44:05.781Z,98.00
2018-12-29T01:46:39.828Z,97.03
2018-12-29T01:49:11.704Z,97.60
2018-12-29T01:51:45.094Z,98.43
2018-12-29T01:54:16.927Z,104.27
2018-12-29T01:56:50.497Z,108.27
2018-12-29T01:59:23.371Z,99.93
2018-12-29T02:01:55.269Z,98.27
2018-12-29T02:04:28.584Z,103.40
2018-12-29T02:09:56.847Z,84.17
2018-12-29T02:12:33.729Z,87.30
2018-12-29T02:15:10.259Z,101.33
2018-12-29T02:18:19.752Z,107.13
2018-12-29T02:20:37.613Z,109.60
2018-12-29T02:23:16.431Z,116.30
2018-12-29T02:25:55.577Z,106.80
2018-12-29T02:28:31.459Z,96.97
2018-12-29T02:31:09.904Z,101.60
2018-12-29T02:33:47.119Z,110.30
2018-12-29T02:36:22.969Z,112.60
2018-12-29T02:39:01.531Z,106.53
2018-12-29T02:41:42.481Z,104.97
2018-12-29T02:44:20.159Z,105.93
2018-12-29T02:49:41.976Z,101.00
2018-12-29T02:52:21.912Z,95.93
2018-12-29T02:54:59.125Z,96.13
2018-12-29T02:57:33.338Z,90.73
2018-12-29T03:00:11.303Z,96.50
2018-12-29T03:02:43.186Z,86.77
2018-12-29T03:05:15.512Z,93.37
2018-12-29T03:07:47.408Z,86.40
2018-12-29T03:10:22.151Z,94.33
2018-12-29T03:12:54.138Z,89.03
2018-12-29T03:15:26.045Z,88.63
2018-12-29T03:17:57.942Z,81.50
2018-12-29T03:20:30.461Z,75.30
2018-12-29T03:23:02.294Z,91.67
2018-12-29T03:25:36.901Z,89.87
2018-12-29T03:28:08.806Z,95.70
2018-12-29T03:30:44.394Z,93.33
2018-12-29T03:33:16.364Z,87.93
2018-12-29T03:35:48.261Z,88.27
2018-12-29T03:38:20.093Z,82.63
2018-12-29T03:40:52.156Z,102.77
2018-12-29T03:43:24.142Z,94.43
2018-12-29T03:45:56.046Z,100.20
2018-12-29T03:48:27.909Z,99.57
2018-12-29T03:50:59.803Z,95.00
2018-12-29T03:53:31.691Z,90.27
2018-12-29T03:56:03.631Z,82.47
2018-12-29T03:58:35.583Z,82.30
2018-12-29T04:01:07.439Z,90.03
2018-12-29T04:03:39.533Z,98.07
2018-12-29T04:06:12.991Z,98.90
2018-12-29T04:09:40.727Z,87.27
2018-12-29T04:12:20.565Z,87.80
2018-12-29T04:14:54.089Z,88.50
2018-12-29T04:17:27.588Z,90.30
2018-12-29T04:20:03.547Z,82.37
2018-12-29T04:22:37.041Z,81.23
2018-12-29T04:25:09.500Z,86.47
2018-12-29T04:27:41.773Z,85.20
2018-12-29T04:30:16.694Z,93.30
2018-12-29T04:32:49.928Z,94.43
2018-12-29T04:35:23.974Z,86.90
2018-12-29T04:37:58.648Z,90.90
2018-12-29T04:40:30.531Z,84.40
2018-12-29T04:43:02.805Z,84.67
2018-12-29T04:45:34.718Z,83.27
2018-12-29T04:48:06.608Z,88.50
2018-12-29T04:50:38.448Z,87.53
2018-12-29T04:53:10.811Z,76.60
2018-12-29T04:55:42.702Z,75.67
2018-12-29T04:58:14.590Z,81.87
2018-12-29T05:00:50.203Z,75.43
2018-12-29T05:03:22.044Z,77.77
2018-12-29T05:05:53.966Z,81.03
2018-12-29T05:08:28.917Z,69.20
2018-12-29T05:11:00.838Z,79.77
2018-12-29T05:13:32.743Z,67.07
2018-12-29T05:16:04.664Z,64.13
2018-12-29T05:18:36.961Z,62.37
2018-12-29T05:21:08.950Z,71.60
2018-12-29T05:23:41.226Z,59.93
2018-12-29T05:26:13.349Z,71.63
2018-12-29T05:28:47.653Z,65.77
2018-12-29T05:31:19.634Z,71.90
2018-12-29T05:33:51.526Z,63.63
2018-12-29T05:36:24.888Z,65.90
2018-12-29T05:38:56.776Z,71.10
2018-12-29T05:41:32.717Z,71.43
2018-12-29T05:44:04.549Z,72.63
2018-12-29T05:46:36.461Z,71.20
2018-12-29T05:49:08.433Z,63.30
2018-12-29T05:51:40.328Z,65.20
2018-12-29T05:54:12.324Z,63.00
2018-12-29T05:56:47.198Z,59.67
2018-12-29T05:59:23.075Z,58.37
2018-12-29T06:01:54.980Z,64.57
2018-12-29T06:04:26.883Z,66.90
2018-12-29T06:06:59.855Z,59.80
2018-12-29T06:09:31.693Z,57.53
2018-12-29T06:12:03.589Z,55.13
2018-12-29T06:14:35.512Z,61.03
2018-12-29T06:17:11.557Z,56.37
2018-12-29T06:19:43.778Z,61.17
2018-12-29T06:22:15.722Z,56.20
2018-12-29T06:24:47.761Z,57.13
2018-12-29T06:27:27.842Z,61.83
2018-12-29T06:30:06.025Z,63.77
2018-12-29T06:32:53.103Z,57.53
2018-12-29T06:35:25.028Z,57.13
2018-12-29T06:37:56.957Z,56.73
2018-12-29T06:40:28.845Z,61.90
2018-12-29T06:43:00.734Z,53.17
2018-12-29T06:45:32.879Z,60.37
2018-12-29T06:48:04.761Z,53.43
2018-12-29T06:50:36.616Z,56.00
2018-12-29T06:53:08.514Z,53.53
2018-12-29T06:55:40.901Z,53.93
2018-12-29T06:58:12.788Z,54.83
2018-12-29T07:00:44.643Z,54.07
2018-12-29T07:03:16.615Z,53.70
2018-12-29T07:05:48.507Z,53.73
2018-12-29T07:08:20.720Z,53.20
2018-12-29T07:10:52.600Z,49.17
2018-12-29T07:13:24.458Z,51.10
2018-12-29T07:15:56.428Z,48.87
2018-12-29T07:18:28.293Z,48.90
2018-12-29T07:21:00.139Z,50.57
2018-12-29T07:23:32.076Z,50.77
2018-12-29T07:26:03.973Z,43.10
2018-12-29T07:28:37.441Z,44.80
2018-12-29T07:31:09.435Z,41.83
2018-12-29T07:33:41.478Z,42.10
2018-12-29T07:36:13.313Z,41.93
2018-12-29T07:38:47.502Z,44.93
2018-12-29T07:41:19.366Z,41.67
2018-12-29T07:43:51.247Z,43.97
2018-12-29T07:46:23.096Z,45.60
2018-12-29T07:48:54.997Z,43.27
2018-12-29T07:51:26.835Z,39.17
2018-12-29T07:53:58.772Z,44.27
2018-12-29T07:56:30.632Z,40.90
2018-12-29T07:59:02.534Z,40.33
2018-12-29T08:01:34.372Z,48.63
2018-12-29T08:04:07.256Z,41.67
2018-12-29T08:06:39.102Z,44.00
2018-12-29T08:09:11.019Z,48.03
2018-12-29T08:11:43.069Z,46.03
2018-12-29T08:14:14.993Z,44.80
2018-12-29T08:16:46.904Z,45.50
2018-12-29T08:19:18.744Z,46.23
2018-12-29T08:21:50.640Z,46.03
2018-12-29T08:24:22.553Z,48.37
2018-12-29T08:26:54.433Z,47.37
2018-12-29T08:29:26.708Z,38.90
2018-12-29T08:31:58.589Z,39.60
2018-12-29T08:34:30.439Z,38.67
2018-12-29T08:37:02.312Z,40.20
2018-12-29T08:39:34.209Z,36.70
2018-12-29T08:42:06.109Z,45.03
2018-12-29T08:44:38.118Z,40.43
2018-12-29T08:47:10.296Z,38.23
2018-12-29T08:49:42.178Z,38.03
2018-12-29T08:52:14.048Z,37.37
2018-12-29T08:54:46.014Z,35.40
2018-12-29T08:57:18.366Z,35.27
2018-12-29T08:59:50.259Z,38.53
2018-12-29T09:02:22.162Z,38.07
2018-12-29T09:04:58.307Z,38.37
2018-12-29T09:07:36.252Z,35.73
2018-12-29T09:10:06.033Z,38.50
2018-12-29T09:12:39.258Z,34.07
2018-12-29T09:15:11.494Z,38.80
2018-12-29T09:17:46.039Z,32.10
2018-12-29T09:20:17.915Z,33.43
2018-12-29T09:22:51.354Z,35.43
2018-12-29T09:25:23.461Z,32.03
2018-12-29T09:27:55.604Z,36.57
2018-12-29T09:30:29.537Z,27.03
2018-12-29T09:33:01.600Z,30.75
2018-12-29T09:35:37.080Z,27.67
2018-12-29T09:38:09.050Z,30.27
2018-12-29T09:40:41.285Z,28.45
2018-12-29T09:43:13.629Z,20.97
2018-12-29T09:45:45.843Z,23.83
2018-12-29T09:48:18.171Z,15.53
2018-12-29T09:50:50.871Z,15.68
2018-12-29T09:53:24.036Z,18.30
2018-12-29T09:55:56.449Z,18.60
2018-12-29T09:58:28.286Z,13.93
2018-12-29T10:01:00.557Z,14.87
2018-12-29T10:03:32.894Z,18.73
2018-12-29T10:06:05.156Z,21.37
2018-12-29T10:08:37.166Z,23.07
2018-12-29T10:11:09.354Z,24.02
2018-12-29T10:13:41.388Z,17.57
2018-12-29T10:16:13.669Z,18.42
2018-12-29T10:18:45.754Z,18.35
2018-12-29T10:21:17.797Z,19.12
2018-12-29T10:23:50.864Z,12.78
2018-12-29T10:26:22.883Z,17.05
2018-12-29T10:28:54.880Z,11.75
2018-12-29T10:31:26.731Z,14.40
2018-12-29T10:33:58.661Z,12.98
2018-12-29T10:36:30.493Z,14.30
2018-12-29T10:39:02.499Z,16.17
2018-12-29T10:41:35.918Z,10.72
2018-12-29T10:44:07.810Z,13.95
2018-12-29T10:46:39.707Z,13.50
2018-12-29T10:49:11.905Z,10.35
2018-12-29T10:51:43.792Z,14.33
2018-12-29T10:54:15.743Z,11.63
2018-12-29T10:56:47.644Z,13.58
2018-12-29T10:59:19.666Z,11.50
2018-12-29T11:01:51.538Z,10.78
2018-12-29T11:04:23.729Z,9.08
2018-12-29T11:06:57.554Z,7.60
2018-12-29T11:09:29.885Z,10.85
2018-12-29T11:12:01.765Z,11.18
2018-12-29T11:14:34.037Z,9.05
2018-12-29T11:17:07.303Z,11.05
2018-12-29T11:19:39.346Z,9.95
2018-12-29T11:22:11.473Z,8.40
2018-12-29T11:24:43.693Z,14.50
2018-12-29T11:27:17.853Z,11.83
2018-12-29T11:29:51.728Z,12.88
2018-12-29T11:32:23.729Z,11.10
2018-12-29T11:34:55.966Z,13.08
2018-12-29T11:37:28.333Z,11.48
2018-12-29T11:40:01.687Z,13.13
2018-12-29T11:42:36.143Z,10.00
2018-12-29T11:45:08.044Z,12.30
2018-12-29T11:47:40.224Z,11.70
2018-12-29T11:50:12.257Z,12.85
2018-12-29T11:52:44.152Z,15.93
2018-12-29T11:55:17.225Z,11.65
2018-12-29T11:57:49.306Z,11.55
2018-12-29T12:00:21.536Z,12.82
2018-12-29T12:02:53.977Z,11.38
2018-12-29T12:05:26.096Z,14.20
2018-12-29T12:07:58.266Z,12.45
2018-12-29T12:10:30.467Z,14.65
2018-12-29T12:13:02.481Z,12.23
2018-12-29T12:15:37.713Z,12.13
2018-12-29T12:18:10.124Z,14.43
2018-12-29T12:20:42.116Z,11.03
2018-12-29T12:23:14.206Z,7.78
2018-12-29T12:25:46.311Z,10.68
2018-12-29T12:28:18.203Z,7.03
2018-12-29T12:30:50.101Z,12.25
2018-12-29T12:33:22.200Z,10.72
2018-12-29T12:35:54.593Z,7.17
2018-12-29T12:38:26.806Z,9.45
2018-12-29T12:41:00.794Z,8.68
2018-12-29T12:43:32.751Z,8.65
2018-12-29T12:46:04.959Z,8.58
2018-12-29T12:48:37.055Z,23.95
2018-12-29T12:51:09.504Z,8.65
2018-12-29T12:53:43.455Z,14.78
2018-12-29T12:56:19.274Z,12.03
2018-12-29T12:58:51.522Z,9.28
2018-12-29T13:01:24.127Z,13.08
2018-12-29T13:03:56.250Z,12.33
2018-12-29T13:06:28.219Z,8.75
2018-12-29T13:09:02.185Z,8.75
2018-12-29T13:11:35.836Z,10.13
2018-12-29T13:14:07.778Z,9.65
2018-12-29T13:16:39.614Z,10.55
2018-12-29T13:19:11.513Z,6.87
2018-12-29T13:21:43.647Z,9.00
2018-12-29T13:24:16.071Z,10.25
2018-12-29T13:26:48.239Z,11.80
2018-12-29T13:29:23.518Z,11.30
2018-12-29T13:31:55.548Z,11.05
2018-12-29T13:34:28.039Z,9.35
2018-12-29T13:37:00.018Z,17.80
2018-12-29T13:39:32.082Z,15.65
2018-12-29T13:42:04.204Z,11.05
2018-12-29T13:44:36.213Z,12.43
2018-12-29T13:47:08.335Z,11.38
2018-12-29T13:49:40.365Z,12.15
2018-12-29T13:52:12.363Z,8.93
2018-12-29T13:54:44.557Z,10.13
2018-12-29T13:57:16.833Z,9.55
2018-12-29T13:59:51.574Z,9.00
2018-12-29T14:02:23.798Z,9.95
2018-12-29T14:05:00.603Z,8.08
2018-12-29T14:07:34.348Z,19.65
2018-12-29T14:10:06.593Z,10.65
2018-12-29T14:12:39.043Z,7.92
2018-12-29T14:15:11.244Z,9.58
2018-12-29T14:17:43.518Z,6.92
2018-12-29T14:20:15.673Z,9.98
2018-12-29T14:22:47.811Z,13.28
2018-12-29T14:25:21.176Z,8.50
2018-12-29T14:27:53.964Z,9.00
2018-12-29T14:30:26.251Z,12.53
2018-12-29T14:32:58.619Z,8.55
2018-12-29T14:35:30.739Z,9.48
2018-12-29T14:38:03.140Z,12.63
2018-12-29T14:40:35.536Z,9.68
2018-12-29T14:43:07.500Z,7.33
2018-12-29T14:45:39.617Z,5.92
2018-12-29T14:48:12.025Z,6.85
2018-12-29T14:50:44.035Z,8.18
2018-12-29T14:53:16.398Z,9.73
2018-12-29T14:55:48.649Z,12.63
2018-12-29T14:58:20.957Z,8.78
2018-12-29T15:00:56.790Z,9.40
2018-12-29T15:03:30.473Z,10.32
2018-12-29T15:06:02.847Z,10.18
2018-12-29T15:08:34.988Z,6.72
2018-12-29T15:11:07.411Z,9.58
2018-12-29T15:13:39.513Z,6.95
2018-12-29T15:16:11.730Z,9.83
2018-12-29T15:18:44.043Z,11.75
2018-12-29T15:21:16.260Z,12.78
2018-12-29T15:23:48.273Z,9.35
2018-12-29T15:26:20.941Z,9.50
2018-12-29T15:28:53.416Z,11.38
2018-12-29T15:31:25.971Z,13.55
2018-12-29T15:33:58.176Z,13.20
2018-12-29T15:36:30.840Z,8.18
2018-12-29T15:39:04.152Z,11.83
2018-12-29T15:41:36.531Z,14.98
2018-12-29T15:44:09.198Z,9.85
2018-12-29T15:46:41.406Z,12.50
2018-12-29T15:49:13.703Z,12.75
2018-12-29T15:51:45.686Z,11.28
2018-12-29T15:54:17.662Z,9.05
2018-12-29T15:56:49.715Z,13.15
2018-12-29T15:59:21.862Z,14.80
2018-12-29T16:01:53.848Z,10.82
2018-12-29T16:04:26.071Z,12.23
2018-12-29T16:06:59.279Z,15.08
2018-12-29T16:09:31.954Z,13.15
2018-12-29T16:12:04.188Z,12.63
2018-12-29T16:14:36.340Z,13.55
2018-12-29T16:17:08.596Z,15.05
2018-12-29T16:19:40.865Z,13.88
2018-12-29T16:22:12.979Z,17.45
2018-12-29T16:24:44.825Z,17.20
2018-12-29T16:27:17.309Z,15.05
2018-12-29T16:29:49.183Z,15.13
2018-12-29T16:32:21.364Z,15.13
2018-12-29T16:34:53.287Z,15.48
2018-12-29T16:37:27.181Z,27.35
2018-12-29T16:39:59.412Z,18.07
2018-12-29T16:42:31.961Z,16.40
2018-12-29T16:45:04.452Z,19.25
2018-12-29T16:47:36.964Z,19.42
2018-12-29T16:50:10.686Z,16.40
2018-12-29T16:52:42.931Z,18.60
2018-12-29T16:55:15.525Z,20.17
2018-12-29T16:57:47.712Z,22.80
2018-12-29T17:00:22.028Z,23.32
2018-12-29T17:02:54.146Z,22.22
2018-12-29T17:05:26.651Z,27.73
2018-12-29T17:07:58.993Z,25.27
2018-12-29T17:10:32.219Z,37.60
2018-12-29T17:13:04.137Z,31.33
2018-12-29T17:15:36.022Z,32.03
2018-12-29T17:18:08.224Z,33.92
2018-12-29T17:20:40.372Z,31.62
2018-12-29T17:23:12.810Z,26.87
2018-12-29T17:25:45.242Z,30.70
2018-12-29T17:28:17.276Z,25.60
2018-12-29T17:30:49.396Z,26.40
2018-12-29T17:33:21.486Z,30.43
2018-12-29T17:35:53.598Z,28.50
2018-12-29T17:38:25.611Z,30.62
2018-12-29T17:40:58.049Z,31.40
2018-12-29T17:43:30.057Z,28.25
2018-12-29T17:46:02.312Z,96.08
2018-12-29T17:48:34.292Z,52.08
2018-12-29T17:51:07.915Z,58.05
2018-12-29T17:53:47.736Z,64.72
2018-12-29T17:56:14.061Z,63.65
2018-12-29T17:58:45.997Z,83.33
2018-12-29T18:01:17.933Z,91.47
2018-12-29T18:03:49.879Z,70.75
2018-12-29T18:06:21.902Z,58.65
2018-12-29T18:08:54.867Z,65.08
2018-12-29T18:11:26.785Z,98.20
2018-12-29T18:13:59.113Z,113.90
2018-12-29T18:16:32.706Z,115.42
2018-12-29T18:19:07.299Z,128.80
2018-12-29T18:21:42.035Z,130.60
2018-12-29T18:24:15.087Z,131.65
2018-12-29T18:26:47.062Z,148.25
2018-12-29T18:29:19.093Z,148.85
2018-12-29T18:31:51.252Z,110.95
2018-12-29T18:34:23.186Z,135.25
2018-12-29T18:36:55.459Z,131.72
2018-12-29T18:39:28.479Z,128.72
2018-12-29T18:42:00.386Z,128.50
2018-12-29T18:44:32.704Z,136.35
2018-12-29T18:47:04.608Z,135.10
2018-12-29T18:49:38.680Z,140.47
2018-12-29T18:52:10.615Z,141.53
2018-12-29T18:54:42.574Z,157.27
2018-12-29T18:57:17.125Z,160.37
2018-12-29T18:59:49.134Z,133.72
2018-12-29T19:02:21.449Z,124.50
2018-12-29T19:04:53.347Z,134.35
2018-12-29T19:07:25.552Z,110.12
2018-12-29T19:09:57.904Z,112.25
2018-12-29T19:12:29.870Z,103.80
2018-12-29T19:15:03.617Z,143.60
2018-12-29T19:17:36.733Z,108.70
2018-12-29T19:20:11.998Z,118.10
2018-12-29T19:22:43.942Z,129.68
2018-12-29T19:25:15.821Z,113.47
2018-12-29T19:27:47.751Z,121.57
2018-12-29T19:30:20.177Z,127.95
2018-12-29T19:32:52.482Z,115.37
2018-12-29T19:35:24.499Z,120.70
2018-12-29T19:37:56.462Z,114.60
2018-12-29T19:40:28.496Z,112.10
2018-12-29T19:43:00.841Z,104.67
2018-12-29T19:45:36.174Z,93.52
2018-12-29T19:48:08.264Z,99.70
2018-12-29T19:50:41.146Z,74.30
2018-12-29T19:53:13.708Z,83.20
2018-12-29T19:55:51.887Z,73.78
2018-12-29T19:58:24.895Z,62.35
2018-12-29T20:00:57.784Z,50.20
2018-12-29T20:03:29.865Z,61.23
2018-12-29T20:06:01.800Z,60.65
2018-12-29T20:08:34.295Z,56.42
2018-12-29T20:11:06.308Z,59.05
2018-12-29T20:13:38.407Z,50.92
2018-12-29T20:16:10.420Z,53.90
2018-12-29T20:18:42.379Z,48.83
2018-12-29T20:21:14.328Z,50.43
2018-12-29T20:23:46.229Z,44.27
2018-12-29T20:26:18.169Z,39.48
2018-12-29T20:28:51.531Z,38.10
2018-12-29T20:31:23.576Z,35.00
2018-12-29T20:33:57.851Z,42.00
2018-12-29T20:36:29.795Z,35.25
2018-12-29T20:39:04.389Z,37.33
2018-12-29T20:41:36.715Z,33.63
2018-12-29T20:44:09.270Z,31.20
2018-12-29T20:46:43.503Z,35.55
2018-12-29T20:49:15.585Z,36.95
2018-12-29T20:51:47.618Z,33.08
2018-12-29T20:54:19.543Z,42.10
2018-12-29T20:56:51.471Z,39.33
2018-12-29T20:59:23.358Z,44.15
2018-12-29T21:01:55.294Z,39.48
2018-12-29T21:04:27.335Z,55.17
2018-12-29T21:06:59.780Z,44.55
2018-12-29T21:09:31.840Z,53.50
2018-12-29T21:12:04.332Z,397.57
2018-12-29T21:14:36.304Z,132.70
2018-12-29T21:17:10.512Z,72.92
2018-12-29T21:19:42.567Z,39.70
2018-12-29T21:22:15.000Z,25.68
2018-12-29T21:24:47.551Z,24.90
2018-12-29T21:27:21.406Z,64.37
2018-12-29T21:29:53.370Z,28.30
2018-12-29T21:32:25.281Z,27.82
2018-12-29T21:34:59.869Z,30.55
2018-12-29T21:37:32.309Z,24.47
2018-12-29T21:40:04.466Z,17.10
2018-12-29T21:42:38.225Z,19.30
2018-12-29T21:45:10.262Z,46.05
2018-12-29T21:47:42.244Z,19.70
2018-12-29T21:50:25.376Z,15.18
2018-12-29T21:52:52.336Z,15.50
2018-12-29T21:55:24.298Z,14.28
2018-12-29T21:57:56.181Z,19.92
2018-12-29T22:00:28.114Z,13.05
2018-12-29T22:03:00.073Z,14.65
2018-12-29T22:05:32.113Z,16.30
2018-12-29T22:08:03.927Z,17.23
2018-12-29T22:10:35.887Z,14.98
2018-12-29T22:13:07.801Z,19.15
2018-12-29T22:15:40.295Z,12.58
2018-12-29T22:18:12.186Z,20.48
2018-12-29T22:20:44.080Z,12.53
2018-12-29T22:23:15.943Z,15.68
2018-12-29T22:25:48.624Z,13.43
2018-12-29T22:28:22.374Z,19.50
2018-12-29T22:30:54.253Z,18.25
2018-12-29T22:33:26.173Z,14.93
2018-12-29T22:35:58.009Z,18.55
2018-12-29T22:38:30.289Z,14.20
2018-12-29T22:41:03.818Z,14.03
2018-12-29T22:43:36.471Z,16.05
2018-12-29T22:46:08.550Z,18.05
2018-12-29T22:48:40.523Z,22.82
2018-12-29T22:51:12.420Z,14.85
2018-12-29T22:53:44.353Z,17.12
2018-12-29T22:56:16.308Z,14.65
2018-12-29T22:58:48.550Z,11.53
2018-12-29T23:01:22.485Z,10.88
2018-12-29T23:03:54.813Z,12.05
2018-12-29T23:06:28.858Z,18.02
2018-12-29T23:09:01.595Z,14.87
2018-12-29T23:11:34.072Z,15.35
2018-12-29T23:14:09.245Z,12.78
2018-12-29T23:16:41.161Z,20.90
2018-12-29T23:19:13.313Z,8.75
2018-12-29T23:21:45.345Z,8.38
2018-12-29T23:24:17.720Z,11.53
2018-12-29T23:26:52.179Z,10.88
2018-12-29T23:29:25.360Z,10.63
2018-12-29T23:31:58.538Z,9.98
2018-12-29T23:34:31.394Z,14.80
2018-12-29T23:37:05.209Z,8.88
2018-12-29T23:39:39.896Z,15.88
2018-12-29T23:42:11.946Z,11.78
2018-12-29T23:44:43.820Z,8.53
2018-12-29T23:47:15.633Z,10.25
2018-12-29T23:49:50.178Z,10.35
2018-12-29T23:52:23.357Z,15.10
2018-12-29T23:54:59.061Z,9.45
2018-12-29T23:57:32.819Z,9.73
